createdAt,value
2023-03-20T00:00:41.183Z,100410.44
2023-03-20T00:03:49.214Z,100417.63
2023-03-20T00:06:56.654Z,100417.44
2023-03-20T00:10:07.506Z,100422.16
2023-03-20T00:13:26.806Z,100428.22
2023-03-20T00:16:39.206Z,100415.78
2023-03-20T00:19:46.324Z,100417.72
2023-03-20T00:22:55.201Z,100413.19
2023-03-20T00:26:02.735Z,100414.06
2023-03-20T00:29:16.974Z,100404.41
2023-03-20T00:32:24.728Z,100411.59
2023-03-20T00:35:33.004Z,100415.44
2023-03-20T00:38:42.170Z,100410.09
2023-03-20T00:41:48.042Z,100411.53
2023-03-20T00:44:55.629Z,100419.34
2023-03-20T00:48:04.824Z,100420.69
2023-03-20T00:51:12.169Z,100416.19
2023-03-20T00:54:19.631Z,100416.91
2023-03-20T00:57:28.555Z,100415.41
2023-03-20T01:00:39.036Z,100421.28
2023-03-20T01:03:47.059Z,100408.38
2023-03-20T01:07:00.378Z,100417.03
2023-03-20T01:10:13.036Z,100409.09
2023-03-20T01:13:25.159Z,100412.06
2023-03-20T01:16:32.410Z,100410.19
2023-03-20T01:19:44.481Z,100411.44
2023-03-20T01:22:56.153Z,100409.56
2023-03-20T01:26:04.785Z,100406.41
2023-03-20T01:29:22.604Z,100410.25
2023-03-20T01:32:30.150Z,100404.59
2023-03-20T01:35:39.410Z,100393.94
2023-03-20T01:38:50.986Z,100401.78
2023-03-20T01:41:57.372Z,100387.28
2023-03-20T01:45:13.274Z,100393.03
2023-03-20T01:48:22.233Z,100396.37
2023-03-20T01:51:36.176Z,100377.72
2023-03-20T01:54:44.583Z,100382.00
2023-03-20T01:57:55.681Z,100377.50
2023-03-20T02:01:05.262Z,100384.28
2023-03-20T02:04:15.447Z,100383.97
2023-03-20T02:07:28.651Z,100381.56
2023-03-20T02:10:38.838Z,100384.34
2023-03-20T02:13:47.230Z,100383.84
2023-03-20T02:16:59.214Z,100379.31
2023-03-20T02:20:11.331Z,100382.84
2023-03-20T02:23:29.325Z,100382.09
2023-03-20T02:26:42.284Z,100385.87
2023-03-20T02:29:59.679Z,100377.84
2023-03-20T02:33:30.892Z,100383.13
2023-03-20T02:37:02.133Z,100374.69
2023-03-20T02:40:10.905Z,100376.81
2023-03-20T02:43:37.397Z,100364.94
2023-03-20T02:46:44.593Z,100364.06
2023-03-20T02:49:56.059Z,100374.53
2023-03-20T02:53:25.087Z,100368.63
2023-03-20T02:56:39.878Z,100363.59
2023-03-20T02:59:54.744Z,100369.37
2023-03-20T03:03:07.345Z,100364.03
2023-03-20T03:06:20.989Z,100352.81
2023-03-20T03:09:31.148Z,100353.66
2023-03-20T03:12:41.059Z,100359.91
2023-03-20T03:15:50.611Z,100362.69
2023-03-20T03:19:16.652Z,100367.62
2023-03-20T03:22:28.486Z,100366.78
2023-03-20T03:25:41.617Z,100365.28
2023-03-20T03:28:53.895Z,100372.97
2023-03-20T03:32:04.488Z,100364.44
2023-03-20T03:35:15.554Z,100374.66
2023-03-20T03:38:39.638Z,100369.75
2023-03-20T03:41:45.284Z,100376.44
2023-03-20T03:44:58.694Z,100379.91
2023-03-20T03:48:13.004Z,100378.50
2023-03-20T03:51:25.227Z,100379.50
2023-03-20T03:54:40.434Z,100384.50
2023-03-20T03:57:58.053Z,100384.50
2023-03-20T04:01:09.655Z,100387.69
2023-03-20T04:04:21.520Z,100392.53
2023-03-20T04:07:30.471Z,100389.50
2023-03-20T04:10:45.760Z,100391.72
2023-03-20T04:13:54.312Z,100396.72
2023-03-20T04:17:03.310Z,100396.97
2023-03-20T04:20:13.318Z,100399.06
2023-03-20T04:23:25.306Z,100403.37
2023-03-20T04:26:31.079Z,100407.09
2023-03-20T04:29:41.201Z,100402.41
2023-03-20T04:32:51.424Z,100413.19
2023-03-20T04:35:58.502Z,100406.00
2023-03-20T04:39:05.755Z,100407.94
2023-03-20T04:42:15.480Z,100418.22
2023-03-20T04:45:22.537Z,100412.25
2023-03-20T04:48:32.095Z,100408.09
2023-03-20T04:51:39.256Z,100410.72
2023-03-20T04:54:51.540Z,100407.25
2023-03-20T04:57:57.623Z,100408.09
2023-03-20T05:01:04.580Z,100412.12
2023-03-20T05:04:13.456Z,100413.91
2023-03-20T05:07:21.880Z,100417.38
2023-03-20T05:10:29.298Z,100416.00
2023-03-20T05:13:38.907Z,100422.47
2023-03-20T05:16:45.946Z,100430.25
2023-03-20T05:19:54.582Z,100425.81
2023-03-20T05:23:06.374Z,100430.25
2023-03-20T05:26:14.453Z,100437.31
2023-03-20T05:29:23.489Z,100434.16
2023-03-20T05:32:40.416Z,100439.41
2023-03-20T05:35:47.786Z,100436.38
2023-03-20T05:38:56.117Z,100443.56
2023-03-20T05:42:03.442Z,100449.81
2023-03-20T05:45:09.604Z,100444.69
2023-03-20T05:48:17.043Z,100440.66
2023-03-20T05:51:22.044Z,100436.38
2023-03-20T05:54:27.571Z,100439.09
2023-03-20T05:57:39.074Z,100437.06
2023-03-20T06:00:45.168Z,100442.59
2023-03-20T06:03:53.882Z,100443.16
2023-03-20T06:07:02.425Z,100448.25
2023-03-20T06:10:09.590Z,100459.72
2023-03-20T06:13:16.068Z,100453.41
2023-03-20T06:16:24.095Z,100463.81
2023-03-20T06:19:29.354Z,100467.66
2023-03-20T06:22:34.747Z,100455.84
2023-03-20T06:25:43.599Z,100457.47
2023-03-20T06:28:49.963Z,100465.59
2023-03-20T06:31:58.346Z,100469.59
2023-03-20T06:35:07.009Z,100459.69
2023-03-20T06:38:15.946Z,100453.09
2023-03-20T06:41:33.880Z,100462.97
2023-03-20T06:44:41.613Z,100468.19
2023-03-20T06:47:47.890Z,100464.84
2023-03-20T06:50:53.613Z,100478.88
2023-03-20T06:53:59.196Z,100480.84
2023-03-20T06:57:04.887Z,100481.06
2023-03-20T07:00:11.155Z,100476.75
2023-03-20T07:03:16.210Z,100472.84
2023-03-20T07:06:21.993Z,100475.91
2023-03-20T07:09:26.930Z,100476.59
2023-03-20T07:12:32.474Z,100485.34
2023-03-20T07:15:36.959Z,100479.34
2023-03-20T07:18:42.221Z,100478.81
2023-03-20T07:21:46.210Z,100482.50
2023-03-20T07:24:51.793Z,100481.50
2023-03-20T07:27:59.668Z,100475.81
2023-03-20T07:31:04.326Z,100477.37
2023-03-20T07:34:08.839Z,100476.63
2023-03-20T07:37:12.595Z,100475.22
2023-03-20T07:40:17.262Z,100478.84
2023-03-20T07:43:23.066Z,100474.72
2023-03-20T07:46:33.603Z,100475.47
2023-03-20T07:49:38.307Z,100476.28
2023-03-20T07:52:51.707Z,100480.47
2023-03-20T07:56:00.242Z,100478.63
2023-03-20T07:59:03.514Z,100472.47
2023-03-20T08:02:07.584Z,100478.34
2023-03-20T08:05:11.544Z,100484.97
2023-03-20T08:08:16.522Z,100482.38
2023-03-20T08:11:26.773Z,100484.47
2023-03-20T08:14:34.270Z,100485.69
2023-03-20T08:17:39.034Z,100485.53
2023-03-20T08:20:43.202Z,100487.78
2023-03-20T08:23:47.094Z,100488.50
2023-03-20T08:26:52.188Z,100489.09
2023-03-20T08:29:56.500Z,100483.91
2023-03-20T08:33:00.612Z,100486.56
2023-03-20T08:36:04.574Z,100486.81
2023-03-20T08:39:08.642Z,100482.00
2023-03-20T08:42:15.025Z,100487.53
2023-03-20T08:45:18.446Z,100499.16
2023-03-20T08:48:23.727Z,100492.38
2023-03-20T08:51:28.373Z,100498.97
2023-03-20T08:54:34.636Z,100504.03
2023-03-20T08:57:41.245Z,100502.88
2023-03-20T09:00:46.385Z,100505.00
2023-03-20T09:03:51.226Z,100493.72
2023-03-20T09:06:55.762Z,100501.53
2023-03-20T09:10:01.521Z,100507.03
2023-03-20T09:13:25.833Z,100509.09
2023-03-20T09:16:32.087Z,100511.69
2023-03-20T09:19:40.628Z,100517.19
2023-03-20T09:22:46.352Z,100499.81
2023-03-20T09:25:52.246Z,100497.00
2023-03-20T09:28:56.698Z,100505.78
2023-03-20T09:32:02.602Z,100500.81
2023-03-20T09:35:07.165Z,100504.72
2023-03-20T09:38:12.682Z,100502.47
2023-03-20T09:41:28.570Z,100497.19
2023-03-20T09:44:33.022Z,100504.13
2023-03-20T09:47:36.421Z,100490.47
2023-03-20T09:50:50.039Z,100493.72
2023-03-20T09:54:02.897Z,100495.50
2023-03-20T09:57:12.216Z,100491.84
2023-03-20T10:00:18.414Z,100496.00
2023-03-20T10:03:27.327Z,100488.53
2023-03-20T10:06:31.398Z,100491.06
2023-03-20T10:09:36.516Z,100492.97
2023-03-20T10:12:44.116Z,100489.69
2023-03-20T10:16:07.724Z,100488.94
2023-03-20T10:19:31.865Z,100493.41
2023-03-20T10:22:41.328Z,100489.06
2023-03-20T10:25:53.034Z,100490.88
2023-03-20T10:29:13.212Z,100493.16
2023-03-20T10:32:24.986Z,100490.72
2023-03-20T10:35:38.404Z,100494.78
2023-03-20T10:39:02.603Z,100484.13
2023-03-20T10:42:14.182Z,100489.47
2023-03-20T10:45:36.536Z,100474.59
2023-03-20T10:48:53.234Z,100478.34
2023-03-20T10:52:00.802Z,100481.88
2023-03-20T10:55:13.007Z,100473.19
2023-03-20T10:58:30.970Z,100472.31
2023-03-20T11:01:39.898Z,100470.69
2023-03-20T11:04:45.849Z,100462.47
2023-03-20T11:07:53.051Z,100460.56
2023-03-20T11:11:02.074Z,100458.91
2023-03-20T11:14:20.944Z,100452.44
2023-03-20T11:17:30.158Z,100444.22
2023-03-20T11:20:38.908Z,100446.72
2023-03-20T11:23:44.471Z,100436.16
2023-03-20T11:26:49.768Z,100436.06
2023-03-20T11:29:54.413Z,100442.94
2023-03-20T11:33:02.757Z,100433.09
2023-03-20T11:36:11.577Z,100429.28
2023-03-20T11:39:24.439Z,100427.97
2023-03-20T11:42:31.322Z,100417.25
2023-03-20T11:45:37.780Z,100424.31
2023-03-20T11:48:46.518Z,100421.13
2023-03-20T11:51:52.177Z,100423.19
2023-03-20T11:54:58.750Z,100422.09
2023-03-20T11:58:06.661Z,100421.19
2023-03-20T12:01:12.537Z,100406.78
2023-03-20T12:04:18.384Z,100410.19
2023-03-20T12:07:28.956Z,100408.75
2023-03-20T12:10:39.809Z,100414.53
2023-03-20T12:13:48.953Z,100404.41
2023-03-20T12:16:56.724Z,100405.09
2023-03-20T12:20:03.876Z,100399.31
2023-03-20T12:23:13.457Z,100398.25
2023-03-20T12:26:35.427Z,100393.66
2023-03-20T12:29:51.111Z,100389.31
2023-03-20T12:33:16.164Z,100389.44
2023-03-20T12:36:34.789Z,100389.00
2023-03-20T12:39:42.245Z,100394.00
2023-03-20T12:43:00.019Z,100388.88
2023-03-20T12:46:31.007Z,100387.78
2023-03-20T12:49:37.874Z,100389.50
2023-03-20T12:52:42.052Z,100392.03
2023-03-20T12:55:49.802Z,100383.34
2023-03-20T12:58:54.217Z,100381.69
2023-03-20T13:02:02.057Z,100371.72
2023-03-20T13:05:38.675Z,100364.09
2023-03-20T13:09:02.551Z,100366.19
2023-03-20T13:12:14.796Z,100367.06
2023-03-20T13:15:23.571Z,100367.66
2023-03-20T13:18:47.608Z,100349.06
2023-03-20T13:22:00.079Z,100354.38
2023-03-20T13:25:28.560Z,100352.47
2023-03-20T13:28:53.599Z,100354.88
2023-03-20T13:32:02.716Z,100350.47
2023-03-20T13:35:15.023Z,100351.56
2023-03-20T13:38:24.719Z,100350.88
2023-03-20T13:41:32.452Z,100338.94
2023-03-20T13:44:36.768Z,100340.03
2023-03-20T13:47:41.134Z,100346.13
2023-03-20T13:50:45.118Z,100340.53
2023-03-20T13:53:53.249Z,100341.47
2023-03-20T13:57:00.576Z,100335.56
2023-03-20T14:00:11.177Z,100333.03
2023-03-20T14:03:21.950Z,100333.97
2023-03-20T14:06:31.103Z,100335.06
2023-03-20T14:09:40.197Z,100332.72
2023-03-20T14:12:48.974Z,100330.19
2023-03-20T14:15:55.488Z,100327.44
2023-03-20T14:19:28.841Z,100323.03
2023-03-20T14:22:39.313Z,100325.22
2023-03-20T14:25:46.982Z,100317.47
2023-03-20T14:28:58.451Z,100331.28
2023-03-20T14:32:06.076Z,100326.53
2023-03-20T14:35:15.320Z,100318.25
2023-03-20T14:38:24.068Z,100318.50
2023-03-20T14:41:39.936Z,100318.25
2023-03-20T14:45:17.869Z,100316.09
2023-03-20T14:48:25.467Z,100307.09
2023-03-20T14:51:42.602Z,100315.78
2023-03-20T14:54:53.988Z,100313.12
2023-03-20T14:58:03.467Z,100314.78
2023-03-20T15:01:09.990Z,100314.06
2023-03-20T15:04:22.686Z,100299.88
2023-03-20T15:07:35.348Z,100310.84
2023-03-20T15:10:56.214Z,100307.84
2023-03-20T15:14:03.269Z,100301.59
2023-03-20T15:17:08.561Z,100300.78
2023-03-20T15:20:16.168Z,100298.97
2023-03-20T15:23:22.797Z,100297.63
2023-03-20T15:26:28.978Z,100294.97
2023-03-20T15:29:33.690Z,100293.53
2023-03-20T15:32:38.594Z,100295.00
2023-03-20T15:35:43.089Z,100296.19
2023-03-20T15:38:49.909Z,100294.56
2023-03-20T15:42:00.147Z,100293.34
2023-03-20T15:45:15.457Z,100301.81
2023-03-20T15:48:23.595Z,100299.59
2023-03-20T15:51:29.972Z,100298.37
2023-03-20T15:54:38.276Z,100295.47
2023-03-20T15:57:45.517Z,100303.31
2023-03-20T16:00:51.003Z,100295.69
2023-03-20T16:03:59.567Z,100288.63
2023-03-20T16:07:04.965Z,100286.41
2023-03-20T16:10:26.299Z,100289.78
2023-03-20T16:13:48.520Z,100295.13
2023-03-20T16:16:56.882Z,100294.16
2023-03-20T16:20:01.895Z,100301.13
2023-03-20T16:23:09.880Z,100302.19
2023-03-20T16:26:21.943Z,100309.59
2023-03-20T16:29:28.655Z,100306.50
2023-03-20T16:32:38.261Z,100317.03
2023-03-20T16:35:45.732Z,100313.31
2023-03-20T16:38:58.560Z,100321.09
2023-03-20T16:42:09.829Z,100326.03
2023-03-20T16:45:22.557Z,100325.81
2023-03-20T16:48:30.621Z,100323.28
2023-03-20T16:51:34.409Z,100326.31
2023-03-20T16:54:41.389Z,100331.03
2023-03-20T16:57:49.257Z,100322.41
2023-03-20T17:01:06.843Z,100330.34
2023-03-20T17:04:21.010Z,100333.78
2023-03-20T17:07:35.287Z,100331.13
2023-03-20T17:10:43.138Z,100342.00
2023-03-20T17:13:50.059Z,100330.59
2023-03-20T17:16:58.253Z,100336.66
2023-03-20T17:20:05.695Z,100341.22
2023-03-20T17:23:19.864Z,100343.06
2023-03-20T17:26:28.903Z,100340.16
2023-03-20T17:29:41.712Z,100349.09
2023-03-20T17:32:53.816Z,100353.94
2023-03-20T17:36:00.427Z,100350.94
2023-03-20T17:39:12.840Z,100349.97
2023-03-20T17:42:20.004Z,100344.63
2023-03-20T17:45:27.963Z,100346.09
2023-03-20T17:48:35.850Z,100348.09
2023-03-20T17:51:44.112Z,100345.91
2023-03-20T17:54:50.334Z,100352.06
2023-03-20T17:57:58.151Z,100348.47
2023-03-20T18:01:05.384Z,100356.56
2023-03-20T18:04:13.656Z,100359.31
2023-03-20T18:07:21.367Z,100360.72
2023-03-20T18:10:34.490Z,100364.41
2023-03-20T18:13:41.021Z,100365.97
2023-03-20T18:16:47.524Z,100369.34
2023-03-20T18:19:58.155Z,100366.16
2023-03-20T18:23:04.843Z,100370.38
2023-03-20T18:26:24.937Z,100367.22
2023-03-20T18:29:34.903Z,100360.59
2023-03-20T18:32:43.777Z,100362.56
2023-03-20T18:35:49.836Z,100359.06
2023-03-20T18:38:57.554Z,100364.94
2023-03-20T18:42:07.114Z,100368.50
2023-03-20T18:45:14.471Z,100367.62
2023-03-20T18:48:23.277Z,100363.97
2023-03-20T18:51:31.173Z,100368.47
2023-03-20T18:54:39.756Z,100367.66
2023-03-20T18:57:49.758Z,100373.59
2023-03-20T19:00:57.968Z,100371.56
2023-03-20T19:04:05.418Z,100368.53
2023-03-20T19:07:13.751Z,100371.91
2023-03-20T19:10:28.514Z,100375.16
2023-03-20T19:13:42.026Z,100378.00
2023-03-20T19:16:48.292Z,100385.38
2023-03-20T19:19:57.301Z,100376.31
2023-03-20T19:23:06.018Z,100381.31
2023-03-20T19:26:18.189Z,100380.59
2023-03-20T19:29:23.597Z,100379.78
2023-03-20T19:32:29.875Z,100374.03
2023-03-20T19:36:00.686Z,100377.91
2023-03-20T19:39:06.111Z,100370.97
2023-03-20T19:42:44.332Z,100373.59
2023-03-20T19:45:44.625Z,100376.63
2023-03-20T19:48:57.698Z,100364.94
2023-03-20T19:52:15.063Z,100372.59
2023-03-20T19:55:20.353Z,100379.75
2023-03-20T19:58:28.107Z,100375.00
2023-03-20T20:01:35.132Z,100379.50
2023-03-20T20:04:43.209Z,100377.03
2023-03-20T20:11:19.739Z,100377.62
2023-03-20T20:14:34.892Z,100368.66
2023-03-20T20:17:45.250Z,100376.03
2023-03-20T20:21:50.932Z,100371.03
2023-03-20T20:24:19.482Z,100367.62
2023-03-20T20:27:25.166Z,100366.63
2023-03-20T20:30:32.162Z,100368.09
2023-03-20T20:33:39.578Z,100369.16
2023-03-20T20:40:16.247Z,100370.53
2023-03-20T20:43:56.707Z,100371.41
2023-03-20T20:46:50.780Z,100371.00
2023-03-20T20:49:56.533Z,100369.63
2023-03-20T20:53:01.337Z,100369.37
2023-03-20T20:56:07.774Z,100365.53
2023-03-20T20:59:11.776Z,100358.34
2023-03-20T21:02:17.642Z,100369.88
2023-03-20T21:05:21.746Z,100366.63
2023-03-20T21:08:28.637Z,100365.94
2023-03-20T21:11:35.108Z,100364.00
2023-03-20T21:14:42.308Z,100357.47
2023-03-20T21:17:59.939Z,100358.87
2023-03-20T21:21:08.218Z,100358.13
2023-03-20T21:24:30.891Z,100356.44
2023-03-20T21:27:39.512Z,100352.63
2023-03-20T21:31:12.662Z,100352.97
2023-03-20T21:34:12.723Z,100353.69
2023-03-20T21:38:22.916Z,100362.31
2023-03-20T21:40:51.081Z,100366.16
2023-03-20T21:44:01.259Z,100365.03
2023-03-20T21:51:02.967Z,100364.62
2023-03-20T22:05:11.090Z,100367.03
2023-03-20T22:08:36.361Z,100374.72
2023-03-20T22:12:07.890Z,100365.75
2023-03-20T22:25:44.354Z,100365.44
2023-03-20T22:36:33.251Z,100358.47
2023-03-20T22:46:39.989Z,100361.19
2023-03-20T22:49:38.938Z,100353.94
2023-03-20T22:52:49.607Z,100366.41
2023-03-20T22:55:58.218Z,100364.28
2023-03-20T22:59:07.843Z,100360.97
2023-03-20T23:02:16.189Z,100374.16
2023-03-20T23:05:24.612Z,100368.53
2023-03-20T23:08:36.104Z,100369.53
2023-03-20T23:11:50.045Z,100374.56
2023-03-20T23:14:58.602Z,100372.13
2023-03-20T23:18:07.615Z,100370.84
2023-03-20T23:21:12.942Z,100387.66
2023-03-20T23:24:20.198Z,100378.19
2023-03-20T23:27:28.178Z,100384.69
2023-03-20T23:30:45.240Z,100378.97
2023-03-20T23:33:58.651Z,100375.78
2023-03-20T23:37:05.914Z,100382.16
2023-03-20T23:40:13.218Z,100380.81
2023-03-20T23:43:21.612Z,100377.72
2023-03-20T23:46:28.641Z,100384.72
2023-03-20T23:49:36.711Z,100381.69
2023-03-20T23:52:53.393Z,100370.22
2023-03-20T23:56:05.660Z,100372.16
2023-03-20T23:59:21.592Z,100375.59
